sensor_id;sensor_type;location;lat;lon;timestamp;pressure;altitude;pressure_sealevel;temperature;humidity
68376;BME280;55318;52.068;5.188;2024-03-17T00:00:05;102376.0;;;7.27;91.67
68376;BME280;55318;52.068;5.188;2024-03-17T00:01:42;102375.0;;;7.16;91.78
68376;BME280;55318;52.068;5.188;2024-03-17T00:03:18;102378.0;;;7.24;91.96
68376;BME280;55318;52.068;5.188;2024-03-17T00:06:30;102373.0;;;7.33;91.58
68376;BME280;55318;52.068;5.188;2024-03-17T00:08:07;102373.0;;;7.26;91.98
68376;BME280;55318;52.068;5.188;2024-03-17T00:09:44;102368.0;;;7.2;92.31
68376;BME280;55318;52.068;5.188;2024-03-17T00:12:58;102367.0;;;7.1;92.86
68376;BME280;55318;52.068;5.188;2024-03-17T00:14:35;102367.0;;;7.2;92.15
68376;BME280;55318;52.068;5.188;2024-03-17T00:16:13;102360.0;;;7.2;92.84
68376;BME280;55318;52.068;5.188;2024-03-17T00:17:49;102358.0;;;7.2;92.31
68376;BME280;55318;52.068;5.188;2024-03-17T00:21:02;102355.0;;;7.08;93.02
68376;BME280;55318;52.068;5.188;2024-03-17T00:22:38;102352.0;;;7.1;93.11
68376;BME280;55318;52.068;5.188;2024-03-17T00:24:14;102355.0;;;7.11;93.68
68376;BME280;55318;52.068;5.188;2024-03-17T00:27:26;102349.0;;;7.13;93.55
68376;BME280;55318;52.068;5.188;2024-03-17T00:29:02;102350.0;;;7.08;93.44
68376;BME280;55318;52.068;5.188;2024-03-17T00:30:39;102350.0;;;7.03;93.65
68376;BME280;55318;52.068;5.188;2024-03-17T00:33:51;102346.0;;;7.02;93.73
68376;BME280;55318;52.068;5.188;2024-03-17T00:35:28;102347.0;;;7.05;93.57
68376;BME280;55318;52.068;5.188;2024-03-17T00:37:04;102345.0;;;7.25;92.83
68376;BME280;55318;52.068;5.188;2024-03-17T00:38:40;102341.0;;;7.18;93.2
68376;BME280;55318;52.068;5.188;2024-03-17T00:41:53;102341.0;;;7.14;93.65
68376;BME280;55318;52.068;5.188;2024-03-17T00:43:29;102340.0;;;7.17;93.04
68376;BME280;55318;52.068;5.188;2024-03-17T00:45:06;102341.0;;;7.17;93.06
68376;BME280;55318;52.068;5.188;2024-03-17T00:48:19;102345.0;;;7.22;92.65
68376;BME280;55318;52.068;5.188;2024-03-17T00:49:56;102345.0;;;7.19;93.03
68376;BME280;55318;52.068;5.188;2024-03-17T00:51:32;102345.0;;;7.23;93.19
68376;BME280;55318;52.068;5.188;2024-03-17T00:54:46;102343.0;;;7.31;92.1
68376;BME280;55318;52.068;5.188;2024-03-17T00:56:23;102341.0;;;7.32;92.45
68376;BME280;55318;52.068;5.188;2024-03-17T00:58:00;102342.0;;;7.22;93.88
68376;BME280;55318;52.068;5.188;2024-03-17T00:59:36;102343.0;;;7.24;93.41
68376;BME280;55318;52.068;5.188;2024-03-17T01:04:25;102335.0;;;7.32;92.5
68376;BME280;55318;52.068;5.188;2024-03-17T01:06:03;102331.0;;;7.19;92.98
68376;BME280;55318;52.068;5.188;2024-03-17T01:09:15;102333.0;;;7.15;93.25
68376;BME280;55318;52.068;5.188;2024-03-17T01:10:51;102326.0;;;7.12;93.64
68376;BME280;55318;52.068;5.188;2024-03-17T01:12:27;102323.0;;;7.13;93.98
68376;BME280;55318;52.068;5.188;2024-03-17T01:15:39;102321.0;;;7.3;93.63
68376;BME280;55318;52.068;5.188;2024-03-17T01:17:15;102326.0;;;7.36;93.46
68376;BME280;55318;52.068;5.188;2024-03-17T01:18:51;102324.0;;;7.4;92.77
68376;BME280;55318;52.068;5.188;2024-03-17T01:22:04;102325.0;;;7.42;92.87
68376;BME280;55318;52.068;5.188;2024-03-17T01:23:41;102323.0;;;7.54;92.13
68376;BME280;55318;52.068;5.188;2024-03-17T01:25:18;102320.0;;;7.54;92.14
68376;BME280;55318;52.068;5.188;2024-03-17T01:26:54;102311.0;;;7.6;92.19
68376;BME280;55318;52.068;5.188;2024-03-17T01:30:07;102310.0;;;7.59;92.17
68376;BME280;55318;52.068;5.188;2024-03-17T01:31:44;102309.0;;;7.69;91.57
68376;BME280;55318;52.068;5.188;2024-03-17T01:33:20;102303.0;;;7.5;92.86
68376;BME280;55318;52.068;5.188;2024-03-17T01:36:33;102300.0;;;7.5;93.17
68376;BME280;55318;52.068;5.188;2024-03-17T01:38:09;102294.0;;;7.54;92.78
68376;BME280;55318;52.068;5.188;2024-03-17T01:39:46;102295.0;;;7.6;92.97
68376;BME280;55318;52.068;5.188;2024-03-17T01:42:59;102288.0;;;7.64;92.3
68376;BME280;55318;52.068;5.188;2024-03-17T01:44:35;102291.0;;;7.6;92.26
68376;BME280;55318;52.068;5.188;2024-03-17T01:46:14;102290.0;;;7.6;92.49
68376;BME280;55318;52.068;5.188;2024-03-17T01:47:53;102289.0;;;7.66;92.15
68376;BME280;55318;52.068;5.188;2024-03-17T01:51:07;102290.0;;;7.62;92.08
68376;BME280;55318;52.068;5.188;2024-03-17T01:52:46;102284.0;;;7.7;91.51
68376;BME280;55318;52.068;5.188;2024-03-17T01:54:24;102284.0;;;7.71;91.5
68376;BME280;55318;52.068;5.188;2024-03-17T01:57:39;102280.0;;;7.66;91.64
68376;BME280;55318;52.068;5.188;2024-03-17T01:59:16;102281.0;;;7.67;91.66
68376;BME280;55318;52.068;5.188;2024-03-17T02:00:53;102286.0;;;7.71;91.8
68376;BME280;55318;52.068;5.188;2024-03-17T02:02:29;102277.0;;;7.79;91.48
68376;BME280;55318;52.068;5.188;2024-03-17T02:05:42;102275.0;;;7.72;91.79
68376;BME280;55318;52.068;5.188;2024-03-17T02:07:19;102278.0;;;7.81;91.32
68376;BME280;55318;52.068;5.188;2024-03-17T02:08:55;102278.0;;;7.73;91.68
68376;BME280;55318;52.068;5.188;2024-03-17T02:12:07;102273.0;;;7.71;92.41
68376;BME280;55318;52.068;5.188;2024-03-17T02:13:44;102274.0;;;7.66;92.07
68376;BME280;55318;52.068;5.188;2024-03-17T02:15:21;102271.0;;;7.61;93.01
68376;BME280;55318;52.068;5.188;2024-03-17T02:18:36;102261.0;;;7.69;93.08
68376;BME280;55318;52.068;5.188;2024-03-17T02:20:12;102261.0;;;7.68;92.74
68376;BME280;55318;52.068;5.188;2024-03-17T02:21:48;102257.0;;;7.86;91.79
68376;BME280;55318;52.068;5.188;2024-03-17T02:23:25;102260.0;;;7.89;91.17
68376;BME280;55318;52.068;5.188;2024-03-17T02:26:39;102259.0;;;7.91;91.12
68376;BME280;55318;52.068;5.188;2024-03-17T02:28:15;102258.0;;;7.97;90.77
68376;BME280;55318;52.068;5.188;2024-03-17T02:29:51;102256.0;;;8.05;90.72
68376;BME280;55318;52.068;5.188;2024-03-17T02:33:04;102249.0;;;8.08;90.87
68376;BME280;55318;52.068;5.188;2024-03-17T02:34:40;102250.0;;;8.09;90.12
68376;BME280;55318;52.068;5.188;2024-03-17T02:36:16;102249.0;;;8.14;89.9
68376;BME280;55318;52.068;5.188;2024-03-17T02:39:28;102252.0;;;8.19;89.54
68376;BME280;55318;52.068;5.188;2024-03-17T02:41:05;102246.0;;;8.18;90.06
68376;BME280;55318;52.068;5.188;2024-03-17T02:42:41;102245.0;;;8.2;89.37
68376;BME280;55318;52.068;5.188;2024-03-17T02:44:17;102243.0;;;8.26;89.31
68376;BME280;55318;52.068;5.188;2024-03-17T02:47:29;102244.0;;;8.31;88.83
68376;BME280;55318;52.068;5.188;2024-03-17T02:49:06;102240.0;;;8.42;88.53
68376;BME280;55318;52.068;5.188;2024-03-17T02:50:42;102237.0;;;8.4;88.63
68376;BME280;55318;52.068;5.188;2024-03-17T02:53:54;102234.0;;;8.33;88.52
68376;BME280;55318;52.068;5.188;2024-03-17T02:55:30;102236.0;;;8.35;88.15
68376;BME280;55318;52.068;5.188;2024-03-17T02:57:06;102239.0;;;8.32;88.75
68376;BME280;55318;52.068;5.188;2024-03-17T03:00:20;102240.0;;;8.34;88.71
68376;BME280;55318;52.068;5.188;2024-03-17T03:01:57;102238.0;;;8.31;88.44
68376;BME280;55318;52.068;5.188;2024-03-17T03:03:35;102237.0;;;8.31;88.38
68376;BME280;55318;52.068;5.188;2024-03-17T03:05:12;102238.0;;;8.31;88.53
68376;BME280;55318;52.068;5.188;2024-03-17T03:08:24;102239.0;;;8.34;88.78
68376;BME280;55318;52.068;5.188;2024-03-17T03:10:00;102239.0;;;8.31;88.57
68376;BME280;55318;52.068;5.188;2024-03-17T03:11:37;102238.0;;;8.39;88.87
68376;BME280;55318;52.068;5.188;2024-03-17T03:14:49;102238.0;;;8.43;88.42
68376;BME280;55318;52.068;5.188;2024-03-17T03:16:26;102237.0;;;8.44;88.41
68376;BME280;55318;52.068;5.188;2024-03-17T03:18:02;102241.0;;;8.48;88.34
68376;BME280;55318;52.068;5.188;2024-03-17T03:21:16;102240.0;;;8.45;88.37
68376;BME280;55318;52.068;5.188;2024-03-17T03:22:52;102240.0;;;8.39;88.52
68376;BME280;55318;52.068;5.188;2024-03-17T03:24:28;102239.0;;;8.48;88.62
68376;BME280;55318;52.068;5.188;2024-03-17T03:26:04;102237.0;;;8.39;88.85
68376;BME280;55318;52.068;5.188;2024-03-17T03:29:16;102233.0;;;8.42;89.25
68376;BME280;55318;52.068;5.188;2024-03-17T03:30:52;102228.0;;;8.47;88.86
68376;BME280;55318;52.068;5.188;2024-03-17T03:32:28;102230.0;;;8.53;88.88
68376;BME280;55318;52.068;5.188;2024-03-17T03:35:41;102230.0;;;8.61;88.39
68376;BME280;55318;52.068;5.188;2024-03-17T03:37:18;102223.0;;;8.56;88.5
68376;BME280;55318;52.068;5.188;2024-03-17T03:38:54;102224.0;;;8.64;88.45
68376;BME280;55318;52.068;5.188;2024-03-17T03:42:07;102222.0;;;8.55;88.81
68376;BME280;55318;52.068;5.188;2024-03-17T03:43:43;102223.0;;;8.55;88.97
68376;BME280;55318;52.068;5.188;2024-03-17T03:45:19;102218.0;;;8.56;89.22
68376;BME280;55318;52.068;5.188;2024-03-17T03:48:31;102212.0;;;8.57;88.98
68376;BME280;55318;52.068;5.188;2024-03-17T03:50:09;102206.0;;;8.63;88.88
68376;BME280;55318;52.068;5.188;2024-03-17T03:51:45;102196.0;;;8.6;88.75
68376;BME280;55318;52.068;5.188;2024-03-17T03:53:22;102188.0;;;8.71;88.87
68376;BME280;55318;52.068;5.188;2024-03-17T03:56:36;102185.0;;;8.64;88.59
68376;BME280;55318;52.068;5.188;2024-03-17T03:58:12;102180.0;;;8.64;88.68
68376;BME280;55318;52.068;5.188;2024-03-17T03:59:48;102177.0;;;8.66;88.73
68376;BME280;55318;52.068;5.188;2024-03-17T04:03:01;102174.0;;;8.73;88.39
68376;BME280;55318;52.068;5.188;2024-03-17T04:04:37;102173.0;;;8.69;88.49
68376;BME280;55318;52.068;5.188;2024-03-17T04:06:13;102165.0;;;8.69;88.7
68376;BME280;55318;52.068;5.188;2024-03-17T04:09:25;102164.0;;;8.66;88.89
68376;BME280;55318;52.068;5.188;2024-03-17T04:11:02;102164.0;;;8.64;89.03
68376;BME280;55318;52.068;5.188;2024-03-17T04:12:39;102167.0;;;8.72;88.69
68376;BME280;55318;52.068;5.188;2024-03-17T04:14:16;102170.0;;;8.77;88.53
68376;BME280;55318;52.068;5.188;2024-03-17T04:17:28;102169.0;;;8.77;88.33
68376;BME280;55318;52.068;5.188;2024-03-17T04:19:05;102169.0;;;8.82;88.31
68376;BME280;55318;52.068;5.188;2024-03-17T04:20:41;102165.0;;;8.8;88.64
68376;BME280;55318;52.068;5.188;2024-03-17T04:23:55;102171.0;;;8.78;88.82
68376;BME280;55318;52.068;5.188;2024-03-17T04:25:32;102170.0;;;8.83;88.65
68376;BME280;55318;52.068;5.188;2024-03-17T04:27:08;102164.0;;;8.83;88.4
68376;BME280;55318;52.068;5.188;2024-03-17T04:30:20;102163.0;;;8.83;88.45
68376;BME280;55318;52.068;5.188;2024-03-17T04:31:56;102155.0;;;8.81;88.94
68376;BME280;55318;52.068;5.188;2024-03-17T04:33:32;102153.0;;;8.85;88.62
68376;BME280;55318;52.068;5.188;2024-03-17T04:35:09;102151.0;;;8.81;88.94
68376;BME280;55318;52.068;5.188;2024-03-17T04:38:22;102153.0;;;8.77;89.1
68376;BME280;55318;52.068;5.188;2024-03-17T04:39:58;102145.0;;;8.86;88.53
68376;BME280;55318;52.068;5.188;2024-03-17T04:41:35;102149.0;;;8.81;89.16
68376;BME280;55318;52.068;5.188;2024-03-17T04:44:48;102149.0;;;8.88;88.53
68376;BME280;55318;52.068;5.188;2024-03-17T04:46:24;102160.0;;;8.84;88.85
68376;BME280;55318;52.068;5.188;2024-03-17T04:48:00;102165.0;;;8.75;89.11
68376;BME280;55318;52.068;5.188;2024-03-17T04:51:15;102167.0;;;8.84;88.68
68376;BME280;55318;52.068;5.188;2024-03-17T04:52:51;102168.0;;;8.85;88.78
68376;BME280;55318;52.068;5.188;2024-03-17T04:54:28;102163.0;;;8.83;88.84
68376;BME280;55318;52.068;5.188;2024-03-17T04:56:06;102167.0;;;8.85;88.8
68376;BME280;55318;52.068;5.188;2024-03-17T04:59:21;102166.0;;;8.84;88.41
68376;BME280;55318;52.068;5.188;2024-03-17T05:00:57;102160.0;;;8.92;88.13
68376;BME280;55318;52.068;5.188;2024-03-17T05:02:33;102158.0;;;8.97;87.86
68376;BME280;55318;52.068;5.188;2024-03-17T05:05:45;102162.0;;;8.9;88.0
68376;BME280;55318;52.068;5.188;2024-03-17T05:07:22;102158.0;;;8.94;87.7
68376;BME280;55318;52.068;5.188;2024-03-17T05:08:58;102150.0;;;8.85;88.03
68376;BME280;55318;52.068;5.188;2024-03-17T05:12:10;102147.0;;;8.96;87.88
68376;BME280;55318;52.068;5.188;2024-03-17T05:13:46;102147.0;;;8.92;87.83
68376;BME280;55318;52.068;5.188;2024-03-17T05:15:23;102155.0;;;8.84;88.08
68376;BME280;55318;52.068;5.188;2024-03-17T05:17:00;102150.0;;;8.97;87.54
68376;BME280;55318;52.068;5.188;2024-03-17T05:20:12;102151.0;;;8.97;87.57
68376;BME280;55318;52.068;5.188;2024-03-17T05:21:49;102155.0;;;8.92;87.31
68376;BME280;55318;52.068;5.188;2024-03-17T05:23:26;102149.0;;;8.93;87.49
68376;BME280;55318;52.068;5.188;2024-03-17T05:26:39;102151.0;;;8.86;88.0
68376;BME280;55318;52.068;5.188;2024-03-17T05:28:16;102150.0;;;8.82;87.92
68376;BME280;55318;52.068;5.188;2024-03-17T05:29:53;102143.0;;;8.82;87.89
68376;BME280;55318;52.068;5.188;2024-03-17T05:33:06;102132.0;;;8.91;87.53
68376;BME280;55318;52.068;5.188;2024-03-17T05:34:42;102132.0;;;8.94;87.3
68376;BME280;55318;52.068;5.188;2024-03-17T05:36:18;102133.0;;;8.77;87.84
68376;BME280;55318;52.068;5.188;2024-03-17T05:37:54;102138.0;;;8.71;88.33
68376;BME280;55318;52.068;5.188;2024-03-17T05:41:07;102135.0;;;8.72;88.18
68376;BME280;55318;52.068;5.188;2024-03-17T05:42:44;102138.0;;;8.71;88.07
68376;BME280;55318;52.068;5.188;2024-03-17T05:44:20;102143.0;;;8.66;88.14
68376;BME280;55318;52.068;5.188;2024-03-17T05:47:34;102146.0;;;8.74;87.77
68376;BME280;55318;52.068;5.188;2024-03-17T05:49:11;102141.0;;;8.66;88.11
68376;BME280;55318;52.068;5.188;2024-03-17T05:50:48;102145.0;;;8.73;87.73
68376;BME280;55318;52.068;5.188;2024-03-17T05:54:00;102147.0;;;8.71;87.67
68376;BME280;55318;52.068;5.188;2024-03-17T05:55:36;102147.0;;;8.57;88.32
68376;BME280;55318;52.068;5.188;2024-03-17T05:57:13;102150.0;;;8.65;88.17
68376;BME280;55318;52.068;5.188;2024-03-17T05:58:49;102153.0;;;8.67;88.2
68376;BME280;55318;52.068;5.188;2024-03-17T06:02:03;102153.0;;;8.64;88.4
68376;BME280;55318;52.068;5.188;2024-03-17T06:03:40;102148.0;;;8.64;88.46
68376;BME280;55318;52.068;5.188;2024-03-17T06:05:16;102143.0;;;8.63;88.42
68376;BME280;55318;52.068;5.188;2024-03-17T06:08:28;102145.0;;;8.71;88.28
68376;BME280;55318;52.068;5.188;2024-03-17T06:10:06;102152.0;;;8.69;88.33
68376;BME280;55318;52.068;5.188;2024-03-17T06:11:42;102150.0;;;8.66;88.61
68376;BME280;55318;52.068;5.188;2024-03-17T06:14:55;102149.0;;;8.75;87.97
68376;BME280;55318;52.068;5.188;2024-03-17T06:16:31;102153.0;;;8.85;87.53
68376;BME280;55318;52.068;5.188;2024-03-17T06:18:11;102155.0;;;8.83;87.66
68376;BME280;55318;52.068;5.188;2024-03-17T06:19:48;102147.0;;;8.78;87.84
68376;BME280;55318;52.068;5.188;2024-03-17T06:23:00;102145.0;;;8.81;87.85
68376;BME280;55318;52.068;5.188;2024-03-17T06:24:37;102143.0;;;8.89;87.66
68376;BME280;55318;52.068;5.188;2024-03-17T06:26:14;102134.0;;;8.92;87.74
68376;BME280;55318;52.068;5.188;2024-03-17T06:29:28;102138.0;;;8.93;87.74
68376;BME280;55318;52.068;5.188;2024-03-17T06:31:05;102141.0;;;8.82;87.84
68376;BME280;55318;52.068;5.188;2024-03-17T06:32:42;102135.0;;;8.9;88.05
68376;BME280;55318;52.068;5.188;2024-03-17T06:34:19;102141.0;;;8.93;88.09
68376;BME280;55318;52.068;5.188;2024-03-17T06:37:31;102138.0;;;9.08;87.79
68376;BME280;55318;52.068;5.188;2024-03-17T06:39:07;102139.0;;;9.01;87.94
68376;BME280;55318;52.068;5.188;2024-03-17T06:40:48;102146.0;;;9.07;87.67
68376;BME280;55318;52.068;5.188;2024-03-17T06:44:02;102145.0;;;9.26;87.41
68376;BME280;55318;52.068;5.188;2024-03-17T06:45:39;102141.0;;;9.21;87.68
68376;BME280;55318;52.068;5.188;2024-03-17T06:47:16;102140.0;;;9.24;87.36
68376;BME280;55318;52.068;5.188;2024-03-17T06:50:29;102135.0;;;9.3;87.17
68376;BME280;55318;52.068;5.188;2024-03-17T06:52:05;102137.0;;;9.28;87.23
68376;BME280;55318;52.068;5.188;2024-03-17T06:53:42;102135.0;;;9.35;86.75
68376;BME280;55318;52.068;5.188;2024-03-17T06:55:19;102132.0;;;9.26;87.0
68376;BME280;55318;52.068;5.188;2024-03-17T06:58:31;102138.0;;;9.33;87.12
68376;BME280;55318;52.068;5.188;2024-03-17T07:00:08;102138.0;;;9.24;86.95
68376;BME280;55318;52.068;5.188;2024-03-17T07:01:45;102138.0;;;9.23;87.04
68376;BME280;55318;52.068;5.188;2024-03-17T07:05:00;102146.0;;;9.27;87.2
68376;BME280;55318;52.068;5.188;2024-03-17T07:06:36;102141.0;;;9.38;87.2
68376;BME280;55318;52.068;5.188;2024-03-17T07:08:13;102147.0;;;9.42;86.98
68376;BME280;55318;52.068;5.188;2024-03-17T07:11:25;102145.0;;;9.43;87.2
68376;BME280;55318;52.068;5.188;2024-03-17T07:13:01;102146.0;;;9.38;87.3
68376;BME280;55318;52.068;5.188;2024-03-17T07:14:37;102151.0;;;9.35;87.55
68376;BME280;55318;52.068;5.188;2024-03-17T07:16:13;102148.0;;;9.38;87.85
68376;BME280;55318;52.068;5.188;2024-03-17T07:19:27;102140.0;;;9.53;87.59
68376;BME280;55318;52.068;5.188;2024-03-17T07:21:04;102141.0;;;9.58;87.34
68376;BME280;55318;52.068;5.188;2024-03-17T07:22:41;102145.0;;;9.53;87.53
68376;BME280;55318;52.068;5.188;2024-03-17T07:25:54;102138.0;;;9.43;87.68
68376;BME280;55318;52.068;5.188;2024-03-17T07:27:31;102136.0;;;9.57;87.4
68376;BME280;55318;52.068;5.188;2024-03-17T07:29:07;102134.0;;;9.64;87.22
68376;BME280;55318;52.068;5.188;2024-03-17T07:32:23;102138.0;;;9.81;87.02
68376;BME280;55318;52.068;5.188;2024-03-17T07:34:00;102135.0;;;9.81;86.64
68376;BME280;55318;52.068;5.188;2024-03-17T07:35:46;102136.0;;;9.93;86.73
68376;BME280;55318;52.068;5.188;2024-03-17T07:37:22;102139.0;;;9.96;86.77
68376;BME280;55318;52.068;5.188;2024-03-17T07:40:35;102140.0;;;9.94;86.31
68376;BME280;55318;52.068;5.188;2024-03-17T07:42:12;102139.0;;;10.06;86.54
68376;BME280;55318;52.068;5.188;2024-03-17T07:43:48;102135.0;;;9.86;86.82
68376;BME280;55318;52.068;5.188;2024-03-17T07:47:00;102137.0;;;9.86;86.89
68376;BME280;55318;52.068;5.188;2024-03-17T07:48:38;102135.0;;;10.05;86.39
68376;BME280;55318;52.068;5.188;2024-03-17T07:50:15;102135.0;;;10.17;86.22
68376;BME280;55318;52.068;5.188;2024-03-17T07:51:51;102121.0;;;10.18;86.03
68376;BME280;55318;52.068;5.188;2024-03-17T07:55:06;102120.0;;;10.29;85.83
68376;BME280;55318;52.068;5.188;2024-03-17T07:56:43;102117.0;;;10.3;86.01
68376;BME280;55318;52.068;5.188;2024-03-17T07:58:20;102121.0;;;10.39;85.72
68376;BME280;55318;52.068;5.188;2024-03-17T08:01:32;102130.0;;;10.32;85.45
68376;BME280;55318;52.068;5.188;2024-03-17T08:03:09;102135.0;;;10.52;85.27
68376;BME280;55318;52.068;5.188;2024-03-17T08:04:45;102137.0;;;10.49;85.72
68376;BME280;55318;52.068;5.188;2024-03-17T08:06:21;102142.0;;;10.53;84.74
68376;BME280;55318;52.068;5.188;2024-03-17T08:09:34;102148.0;;;10.57;84.93
68376;BME280;55318;52.068;5.188;2024-03-17T08:11:11;102143.0;;;10.48;84.91
68376;BME280;55318;52.068;5.188;2024-03-17T08:12:48;102141.0;;;10.54;85.02
68376;BME280;55318;52.068;5.188;2024-03-17T08:16:02;102136.0;;;10.44;85.35
68376;BME280;55318;52.068;5.188;2024-03-17T08:17:38;102135.0;;;10.43;85.41
68376;BME280;55318;52.068;5.188;2024-03-17T08:19:15;102135.0;;;10.45;85.39
68376;BME280;55318;52.068;5.188;2024-03-17T08:22:29;102130.0;;;10.52;85.49
68376;BME280;55318;52.068;5.188;2024-03-17T08:24:05;102130.0;;;10.5;85.66
68376;BME280;55318;52.068;5.188;2024-03-17T08:25:42;102127.0;;;10.62;85.42
68376;BME280;55318;52.068;5.188;2024-03-17T08:27:27;102127.0;;;10.53;85.59
68376;BME280;55318;52.068;5.188;2024-03-17T08:30:39;102131.0;;;10.62;85.64
68376;BME280;55318;52.068;5.188;2024-03-17T08:33:51;102137.0;;;10.63;85.58
68376;BME280;55318;52.068;5.188;2024-03-17T08:37:03;102142.0;;;10.61;85.56
68376;BME280;55318;52.068;5.188;2024-03-17T08:38:41;102136.0;;;10.56;86.29
68376;BME280;55318;52.068;5.188;2024-03-17T08:40:18;102137.0;;;10.66;85.68
68376;BME280;55318;52.068;5.188;2024-03-17T08:43:31;102137.0;;;10.71;86.24
68376;BME280;55318;52.068;5.188;2024-03-17T08:45:09;102133.0;;;10.72;86.02
68376;BME280;55318;52.068;5.188;2024-03-17T08:46:47;102131.0;;;10.64;86.37
68376;BME280;55318;52.068;5.188;2024-03-17T08:48:24;102130.0;;;10.69;86.19
68376;BME280;55318;52.068;5.188;2024-03-17T08:51:37;102128.0;;;10.78;85.97
68376;BME280;55318;52.068;5.188;2024-03-17T08:53:14;102126.0;;;10.78;86.19
68376;BME280;55318;52.068;5.188;2024-03-17T08:54:51;102120.0;;;10.93;86.18
68376;BME280;55318;52.068;5.188;2024-03-17T08:58:03;102121.0;;;10.89;86.72
68376;BME280;55318;52.068;5.188;2024-03-17T08:59:40;102126.0;;;11.05;86.17
68376;BME280;55318;52.068;5.188;2024-03-17T09:01:16;102123.0;;;10.98;86.03
68376;BME280;55318;52.068;5.188;2024-03-17T09:02:53;102121.0;;;11.08;85.73
68376;BME280;55318;52.068;5.188;2024-03-17T09:06:14;102123.0;;;11.23;85.81
68376;BME280;55318;52.068;5.188;2024-03-17T09:07:50;102120.0;;;11.12;85.39
68376;BME280;55318;52.068;5.188;2024-03-17T09:09:27;102115.0;;;11.34;85.16
68376;BME280;55318;52.068;5.188;2024-03-17T09:12:48;102114.0;;;11.29;84.85
68376;BME280;55318;52.068;5.188;2024-03-17T09:14:25;102117.0;;;11.34;85.27
68376;BME280;55318;52.068;5.188;2024-03-17T09:16:01;102111.0;;;11.37;84.77
68376;BME280;55318;52.068;5.188;2024-03-17T09:17:38;102114.0;;;11.52;84.42
68376;BME280;55318;52.068;5.188;2024-03-17T09:20:57;102117.0;;;11.51;84.51
68376;BME280;55318;52.068;5.188;2024-03-17T09:22:33;102112.0;;;11.64;84.32
68376;BME280;55318;52.068;5.188;2024-03-17T09:24:09;102107.0;;;11.66;83.75
68376;BME280;55318;52.068;5.188;2024-03-17T09:27:31;102113.0;;;11.57;83.92
68376;BME280;55318;52.068;5.188;2024-03-17T09:29:08;102119.0;;;11.64;83.24
68376;BME280;55318;52.068;5.188;2024-03-17T09:30:46;102121.0;;;11.66;82.58
68376;BME280;55318;52.068;5.188;2024-03-17T09:32:24;102111.0;;;11.58;83.08
68376;BME280;55318;52.068;5.188;2024-03-17T09:35:36;102112.0;;;11.84;82.9
68376;BME280;55318;52.068;5.188;2024-03-17T09:37:13;102105.0;;;11.94;81.98
68376;BME280;55318;52.068;5.188;2024-03-17T09:38:49;102097.0;;;12.01;81.7
68376;BME280;55318;52.068;5.188;2024-03-17T09:42:04;102102.0;;;11.97;81.41
68376;BME280;55318;52.068;5.188;2024-03-17T09:43:41;102092.0;;;12.11;81.11
68376;BME280;55318;52.068;5.188;2024-03-17T09:45:19;102091.0;;;11.94;81.44
68376;BME280;55318;52.068;5.188;2024-03-17T09:46:56;102093.0;;;12.12;80.91
68376;BME280;55318;52.068;5.188;2024-03-17T09:50:13;102091.0;;;12.21;80.55
68376;BME280;55318;52.068;5.188;2024-03-17T09:51:52;102100.0;;;12.13;81.22
68376;BME280;55318;52.068;5.188;2024-03-17T09:53:32;102105.0;;;12.15;81.36
68376;BME280;55318;52.068;5.188;2024-03-17T09:55:15;102102.0;;;12.03;81.66
68376;BME280;55318;52.068;5.188;2024-03-17T09:58:28;102100.0;;;12.01;81.67
68376;BME280;55318;52.068;5.188;2024-03-17T10:00:09;102099.0;;;12.08;82.0
68376;BME280;55318;52.068;5.188;2024-03-17T10:01:47;102097.0;;;12.19;81.66
68376;BME280;55318;52.068;5.188;2024-03-17T10:05:24;102101.0;;;12.23;80.97
68376;BME280;55318;52.068;5.188;2024-03-17T10:07:00;102088.0;;;12.14;81.52
68376;BME280;55318;52.068;5.188;2024-03-17T10:08:40;102090.0;;;12.34;81.37
68376;BME280;55318;52.068;5.188;2024-03-17T10:10:18;102084.0;;;12.49;81.11
68376;BME280;55318;52.068;5.188;2024-03-17T10:11:56;102083.0;;;12.65;81.05
68376;BME280;55318;52.068;5.188;2024-03-17T10:15:11;102086.0;;;12.85;80.55
68376;BME280;55318;52.068;5.188;2024-03-17T10:16:48;102083.0;;;12.93;79.41
68376;BME280;55318;52.068;5.188;2024-03-17T10:18:25;102077.0;;;12.98;78.98
68376;BME280;55318;52.068;5.188;2024-03-17T10:21:58;102080.0;;;13.1;78.89
68376;BME280;55318;52.068;5.188;2024-03-17T10:23:35;102082.0;;;13.24;78.64
68376;BME280;55318;52.068;5.188;2024-03-17T10:25:12;102077.0;;;13.16;78.77
68376;BME280;55318;52.068;5.188;2024-03-17T10:26:51;102076.0;;;13.13;78.48
68376;BME280;55318;52.068;5.188;2024-03-17T10:30:14;102082.0;;;13.27;78.3
68376;BME280;55318;52.068;5.188;2024-03-17T10:31:55;102074.0;;;13.34;77.02
68376;BME280;55318;52.068;5.188;2024-03-17T10:33:32;102073.0;;;13.27;77.72
68376;BME280;55318;52.068;5.188;2024-03-17T10:35:25;102075.0;;;13.4;77.81
68376;BME280;55318;52.068;5.188;2024-03-17T10:37:08;102077.0;;;13.4;77.38
68376;BME280;55318;52.068;5.188;2024-03-17T10:40:29;102075.0;;;13.43;77.09
68376;BME280;55318;52.068;5.188;2024-03-17T10:42:06;102069.0;;;13.6;78.06
68376;BME280;55318;52.068;5.188;2024-03-17T10:43:43;102068.0;;;13.57;78.55
68376;BME280;55318;52.068;5.188;2024-03-17T10:46:58;102062.0;;;13.87;78.02
68376;BME280;55318;52.068;5.188;2024-03-17T10:48:37;102066.0;;;13.99;76.91
68376;BME280;55318;52.068;5.188;2024-03-17T10:50:18;102064.0;;;14.17;75.97
68376;BME280;55318;52.068;5.188;2024-03-17T10:51:57;102064.0;;;14.39;75.11
68376;BME280;55318;52.068;5.188;2024-03-17T10:55:20;102057.0;;;14.45;74.88
68376;BME280;55318;52.068;5.188;2024-03-17T10:57:03;102059.0;;;14.74;75.36
68376;BME280;55318;52.068;5.188;2024-03-17T11:00:31;102058.0;;;14.86;74.17
68376;BME280;55318;52.068;5.188;2024-03-17T11:02:20;102053.0;;;14.95;73.78
68376;BME280;55318;52.068;5.188;2024-03-17T11:05:35;102050.0;;;15.03;72.92
68376;BME280;55318;52.068;5.188;2024-03-17T11:07:16;102050.0;;;14.94;71.36
68376;BME280;55318;52.068;5.188;2024-03-17T11:08:54;102049.0;;;14.73;72.63
68376;BME280;55318;52.068;5.188;2024-03-17T11:10:33;102051.0;;;14.82;73.05
68376;BME280;55318;52.068;5.188;2024-03-17T11:14:18;102060.0;;;14.76;73.45
68376;BME280;55318;52.068;5.188;2024-03-17T11:15:56;102059.0;;;14.63;73.67
68376;BME280;55318;52.068;5.188;2024-03-17T11:17:33;102061.0;;;14.6;73.61